createdAt,value
2022-08-19T00:01:59.062Z,97727.16
2022-08-19T00:04:37.434Z,97726.75
2022-08-19T00:07:08.423Z,97720.16
2022-08-19T00:09:35.558Z,97725.06
2022-08-19T00:12:03.278Z,97727.78
2022-08-19T00:14:33.878Z,97733.16
2022-08-19T00:17:01.958Z,97732.06
2022-08-19T00:19:29.643Z,97735.00
2022-08-19T00:21:57.256Z,97739.72
2022-08-19T00:24:25.221Z,97745.22
2022-08-19T00:26:53.394Z,97749.84
2022-08-19T00:29:22.708Z,97737.34
2022-08-19T00:31:51.179Z,97739.16
2022-08-19T00:34:18.273Z,97742.13
2022-08-19T00:36:46.006Z,97746.16
2022-08-19T00:39:15.339Z,97729.81
2022-08-19T00:41:44.398Z,97722.69
2022-08-19T00:44:26.827Z,97713.19
2022-08-19T00:46:58.079Z,97700.03
2022-08-19T00:49:54.160Z,97718.13
2022-08-19T00:52:36.062Z,97718.03
2022-08-19T00:55:07.615Z,97719.75
2022-08-19T00:57:38.884Z,97720.16
2022-08-19T01:00:13.090Z,97725.41
2022-08-19T01:02:41.733Z,97731.75
2022-08-19T01:05:16.015Z,97737.06
2022-08-19T01:07:43.324Z,97740.84
2022-08-19T01:10:16.709Z,97734.22
2022-08-19T01:12:44.152Z,97742.56
2022-08-19T01:15:15.640Z,97735.28
2022-08-19T01:17:43.708Z,97736.31
2022-08-19T01:20:16.092Z,97730.13
2022-08-19T01:22:56.908Z,97731.22
2022-08-19T01:25:30.748Z,97732.81
2022-08-19T01:28:03.702Z,97732.31
2022-08-19T01:30:38.174Z,97722.56
2022-08-19T01:33:06.590Z,97722.84
2022-08-19T01:35:34.152Z,97727.72
2022-08-19T01:38:09.353Z,97722.00
2022-08-19T01:40:40.962Z,97718.44
2022-08-19T01:43:08.029Z,97720.00
2022-08-19T01:45:36.768Z,97719.03
2022-08-19T01:48:05.056Z,97721.53
2022-08-19T01:50:33.799Z,97729.91
2022-08-19T01:53:06.581Z,97724.22
2022-08-19T01:55:40.946Z,97722.56
2022-08-19T01:58:14.113Z,97715.53
2022-08-19T02:00:41.457Z,97722.00
2022-08-19T02:03:12.138Z,97712.88
2022-08-19T02:05:41.005Z,97716.63
2022-08-19T02:08:09.580Z,97722.31
2022-08-19T02:10:44.041Z,97731.28
2022-08-19T02:13:13.306Z,97727.13
2022-08-19T02:15:40.886Z,97726.66
2022-08-19T02:18:08.386Z,97725.88
2022-08-19T02:20:36.959Z,97726.13
2022-08-19T02:23:04.539Z,97724.25
2022-08-19T02:25:31.596Z,97729.09
2022-08-19T02:27:58.720Z,97739.91
2022-08-19T02:30:26.721Z,97751.19
2022-08-19T02:32:54.495Z,97744.69
2022-08-19T02:35:22.146Z,97750.09
2022-08-19T02:38:08.011Z,97741.19
2022-08-19T02:40:35.954Z,97740.94
2022-08-19T02:43:08.389Z,97733.41
2022-08-19T02:45:41.701Z,97729.66
2022-08-19T02:48:17.925Z,97729.63
2022-08-19T02:50:56.161Z,97723.97
2022-08-19T02:53:25.729Z,97722.91
2022-08-19T02:55:53.247Z,97728.84
2022-08-19T02:58:22.445Z,97718.91
2022-08-19T03:00:53.791Z,97721.59
2022-08-19T03:03:21.293Z,97717.22
2022-08-19T03:05:56.531Z,97720.22
2022-08-19T03:08:26.575Z,97723.44
2022-08-19T03:10:54.276Z,97725.88
2022-08-19T03:13:21.403Z,97723.72
2022-08-19T03:15:49.157Z,97728.03
2022-08-19T03:18:18.147Z,97728.53
2022-08-19T03:20:55.390Z,97730.38
2022-08-19T03:23:23.220Z,97733.38
2022-08-19T03:25:58.445Z,97739.59
2022-08-19T03:28:39.818Z,97741.47
2022-08-19T03:31:45.252Z,97744.41
2022-08-19T03:33:59.843Z,97738.25
2022-08-19T03:36:29.558Z,97743.63
2022-08-19T03:39:00.565Z,97738.78
2022-08-19T03:41:45.554Z,97733.44
2022-08-19T03:44:16.905Z,97736.69
2022-08-19T03:46:48.256Z,97738.53
2022-08-19T03:49:15.789Z,97740.41
2022-08-19T03:51:45.971Z,97744.22
2022-08-19T03:54:16.189Z,97736.94
2022-08-19T03:56:46.125Z,97738.81
2022-08-19T03:59:24.148Z,97736.09
2022-08-19T04:01:51.243Z,97737.75
2022-08-19T04:04:18.254Z,97744.22
2022-08-19T04:06:48.164Z,97739.09
2022-08-19T04:09:15.622Z,97748.53
2022-08-19T04:11:56.088Z,97745.28
2022-08-19T04:14:31.264Z,97741.00
2022-08-19T04:17:00.835Z,97728.06
2022-08-19T04:19:29.882Z,97732.59
2022-08-19T04:21:56.967Z,97726.69
2022-08-19T04:24:24.272Z,97732.06
2022-08-19T04:26:51.810Z,97735.84
2022-08-19T04:29:25.828Z,97735.59
2022-08-19T04:31:55.500Z,97734.50
2022-08-19T04:34:27.429Z,97726.47
2022-08-19T04:36:57.301Z,97730.22
2022-08-19T04:39:50.354Z,97725.91
2022-08-19T04:42:38.112Z,97728.03
2022-08-19T04:45:09.244Z,97727.22
2022-08-19T04:47:47.698Z,97735.03
2022-08-19T04:50:27.897Z,97726.97
2022-08-19T04:52:56.523Z,97727.50
2022-08-19T04:55:26.576Z,97726.41
2022-08-19T04:57:54.826Z,97734.50
2022-08-19T05:00:22.133Z,97736.63
2022-08-19T05:02:50.099Z,97736.66
2022-08-19T05:05:17.408Z,97742.56
2022-08-19T05:07:44.495Z,97749.56
2022-08-19T05:10:12.529Z,97761.94
2022-08-19T05:12:40.089Z,97761.41
2022-08-19T05:15:09.505Z,97762.47
2022-08-19T05:17:38.904Z,97777.03
2022-08-19T05:20:29.266Z,97788.75
2022-08-19T05:22:56.736Z,97781.16
2022-08-19T05:25:25.599Z,97793.94
2022-08-19T05:27:52.624Z,97796.09
2022-08-19T05:30:24.520Z,97809.09
2022-08-19T05:33:07.347Z,97819.09
2022-08-19T05:35:34.536Z,97831.88
2022-08-19T05:38:02.022Z,97820.72
2022-08-19T05:40:29.551Z,97835.34
2022-08-19T05:42:56.968Z,97837.88
2022-08-19T05:45:24.020Z,97838.81
2022-08-19T05:47:51.008Z,97839.28
2022-08-19T05:50:18.569Z,97837.84
2022-08-19T05:52:50.028Z,97841.97
2022-08-19T05:55:18.043Z,97841.53
2022-08-19T05:57:45.097Z,97846.25
2022-08-19T06:00:13.342Z,97843.59
2022-08-19T06:02:41.517Z,97846.09
2022-08-19T06:05:10.049Z,97850.13
2022-08-19T06:07:38.966Z,97847.34
2022-08-19T06:10:09.785Z,97844.66
2022-08-19T06:12:37.822Z,97847.28
2022-08-19T06:15:10.090Z,97845.22
2022-08-19T06:17:37.912Z,97843.09
2022-08-19T06:20:09.752Z,97838.19
2022-08-19T06:22:44.987Z,97837.16
2022-08-19T06:25:15.236Z,97834.38
2022-08-19T06:30:30.626Z,97841.19
2022-08-19T06:32:57.903Z,97839.28
2022-08-19T06:35:24.951Z,97838.19
2022-08-19T06:37:53.525Z,97836.34
2022-08-19T06:40:20.667Z,97843.59
2022-08-19T06:42:55.017Z,97834.03
2022-08-19T06:45:24.480Z,97834.53
2022-08-19T06:47:56.911Z,97837.94
2022-08-19T06:50:27.257Z,97846.38
2022-08-19T06:52:55.266Z,97844.25
2022-08-19T06:55:22.560Z,97845.25
2022-08-19T06:57:54.249Z,97845.66
2022-08-19T07:00:21.801Z,97846.41
2022-08-19T07:02:56.164Z,97849.13
2022-08-19T07:05:26.541Z,97847.47
2022-08-19T07:07:53.798Z,97853.19
2022-08-19T07:10:25.848Z,97847.97
2022-08-19T07:12:53.286Z,97855.31
2022-08-19T07:15:22.240Z,97852.09
2022-08-19T07:17:52.679Z,97849.66
2022-08-19T07:20:20.862Z,97845.50
2022-08-19T07:22:48.830Z,97847.66
2022-08-19T07:25:18.193Z,97863.56
2022-08-19T07:27:46.383Z,97858.19
2022-08-19T07:30:15.838Z,97860.41
2022-08-19T07:32:43.417Z,97866.50
2022-08-19T07:35:10.930Z,97869.09
2022-08-19T07:37:39.231Z,97862.19
2022-08-19T07:40:09.714Z,97866.88
2022-08-19T07:42:36.912Z,97856.38
2022-08-19T07:45:06.803Z,97861.19
2022-08-19T07:47:48.036Z,97859.81
2022-08-19T07:50:20.379Z,97859.78
2022-08-19T07:52:50.406Z,97857.56
2022-08-19T07:55:41.159Z,97855.41
2022-08-19T07:58:09.466Z,97856.09
2022-08-19T08:00:36.871Z,97869.19
2022-08-19T08:03:04.282Z,97864.84
2022-08-19T08:05:49.653Z,97868.25
2022-08-19T08:08:35.752Z,97863.88
2022-08-19T08:11:02.959Z,97869.75
2022-08-19T08:13:36.399Z,97877.94
2022-08-19T08:16:10.282Z,97874.25
2022-08-19T08:18:43.249Z,97882.22
2022-08-19T08:21:14.839Z,97885.19
2022-08-19T08:23:42.249Z,97888.75
2022-08-19T08:26:09.568Z,97894.25
2022-08-19T08:28:38.363Z,97883.38
2022-08-19T08:31:09.327Z,97888.53
2022-08-19T08:33:36.787Z,97889.28
2022-08-19T08:36:08.597Z,97885.28
2022-08-19T08:38:41.303Z,97880.69
2022-08-19T08:41:39.057Z,97872.19
2022-08-19T08:44:07.031Z,97868.09
2022-08-19T08:46:39.974Z,97872.81
2022-08-19T08:49:48.072Z,97876.00
2022-08-19T08:52:36.314Z,97881.34
2022-08-19T08:55:12.231Z,97874.09
2022-08-19T08:57:57.544Z,97876.41
2022-08-19T09:00:37.532Z,97881.97
2022-08-19T09:03:21.377Z,97884.22
2022-08-19T09:06:00.460Z,97874.66
2022-08-19T09:08:44.301Z,97880.97
2022-08-19T09:11:42.644Z,97883.66
2022-08-19T09:14:58.604Z,97884.78
2022-08-19T09:17:31.890Z,97899.34
2022-08-19T09:20:09.464Z,97894.69
2022-08-19T09:22:44.963Z,97883.84
2022-08-19T09:25:24.525Z,97906.53
2022-08-19T09:28:01.185Z,97898.94
2022-08-19T09:30:34.398Z,97893.00
2022-08-19T09:33:02.008Z,97893.00
2022-08-19T09:35:30.930Z,97903.13
2022-08-19T09:38:00.135Z,97896.41
2022-08-19T09:40:35.439Z,97909.84
2022-08-19T09:43:13.139Z,97902.50
2022-08-19T09:45:40.574Z,97897.06
2022-08-19T09:48:07.710Z,97899.72
2022-08-19T09:50:39.402Z,97904.19
2022-08-19T09:53:19.932Z,97903.69
2022-08-19T09:55:47.201Z,97907.13
2022-08-19T09:58:14.217Z,97908.59
2022-08-19T10:00:41.294Z,97902.25
2022-08-19T10:03:08.633Z,97900.13
2022-08-19T10:05:50.729Z,97897.94
2022-08-19T10:08:29.690Z,97894.25
2022-08-19T10:10:58.940Z,97895.91
2022-08-19T10:13:29.277Z,97896.41
2022-08-19T10:16:04.400Z,97898.06
2022-08-19T10:18:33.167Z,97897.91
2022-08-19T10:21:22.279Z,97898.38
2022-08-19T10:23:55.761Z,97884.31
2022-08-19T10:26:31.754Z,97896.91
2022-08-19T10:28:59.061Z,97891.59
2022-08-19T10:31:59.810Z,97887.78
2022-08-19T10:34:27.474Z,97887.06
2022-08-19T10:36:56.544Z,97894.28
2022-08-19T10:39:32.774Z,97889.22
2022-08-19T10:42:11.521Z,97892.13
2022-08-19T10:44:38.662Z,97895.88
2022-08-19T10:47:17.330Z,97899.72
2022-08-19T10:50:11.738Z,97888.81
2022-08-19T10:52:49.939Z,97887.28
2022-08-19T10:55:42.804Z,97892.91
2022-08-19T10:58:23.048Z,97880.25
2022-08-19T11:00:59.421Z,97882.13
2022-08-19T11:03:30.102Z,97889.28
2022-08-19T11:06:03.479Z,97889.00
2022-08-19T11:08:31.841Z,97881.13
2022-08-19T11:11:02.865Z,97879.34
2022-08-19T11:13:33.503Z,97876.16
2022-08-19T11:16:14.340Z,97880.50
2022-08-19T11:18:53.709Z,97873.53
2022-08-19T11:21:28.891Z,97870.13
2022-08-19T11:24:01.358Z,97868.28
2022-08-19T11:26:31.089Z,97870.50
2022-08-19T11:28:59.992Z,97872.34
2022-08-19T11:31:31.989Z,97877.69
2022-08-19T11:34:03.523Z,97879.56
2022-08-19T11:36:33.555Z,97876.69
2022-08-19T11:39:01.854Z,97875.34
2022-08-19T11:41:28.967Z,97875.56
2022-08-19T11:43:56.794Z,97868.09
2022-08-19T11:46:26.964Z,97873.75
2022-08-19T11:48:54.864Z,97871.84
2022-08-19T11:51:25.752Z,97871.84
2022-08-19T11:53:54.977Z,97875.63
2022-08-19T11:56:22.919Z,97872.34
2022-08-19T11:58:50.085Z,97873.50
2022-08-19T12:01:20.922Z,97875.09
2022-08-19T12:03:51.390Z,97879.38
2022-08-19T12:06:29.295Z,97878.63
2022-08-19T12:08:59.101Z,97871.06
2022-08-19T12:11:27.641Z,97871.59
2022-08-19T12:13:56.246Z,97872.34
2022-08-19T12:16:27.932Z,97872.47
2022-08-19T12:19:04.334Z,97871.59
2022-08-19T12:21:34.729Z,97870.81
2022-08-19T12:24:03.709Z,97871.28
2022-08-19T12:26:32.449Z,97869.16
2022-08-19T12:29:00.687Z,97879.63
2022-08-19T12:31:29.584Z,97879.66
2022-08-19T12:33:56.974Z,97878.63
2022-08-19T12:36:25.780Z,97874.06
2022-08-19T12:38:53.963Z,97870.56
2022-08-19T12:41:23.345Z,97878.38
2022-08-19T12:43:51.328Z,97882.00
2022-08-19T12:46:20.435Z,97870.25
2022-08-19T12:48:51.128Z,97871.91
2022-08-19T12:51:22.564Z,97878.56
2022-08-19T12:53:50.594Z,97878.88
2022-08-19T12:56:22.853Z,97880.97
2022-08-19T12:58:52.911Z,97886.31
2022-08-19T13:01:21.993Z,97887.84
2022-08-19T13:03:51.023Z,97893.19
2022-08-19T13:06:19.052Z,97892.97
2022-08-19T13:08:47.399Z,97887.13
2022-08-19T13:11:21.243Z,97889.72
2022-08-19T13:13:51.933Z,97901.44
2022-08-19T13:16:21.277Z,97893.44
2022-08-19T13:18:49.062Z,97902.91
2022-08-19T13:21:16.606Z,97893.34
2022-08-19T13:23:43.703Z,97895.72
2022-08-19T13:26:12.816Z,97901.63
2022-08-19T13:29:00.090Z,97896.34
2022-08-19T13:31:49.608Z,97889.69
2022-08-19T13:34:20.220Z,97889.28
2022-08-19T13:36:47.220Z,97890.88
2022-08-19T13:39:14.288Z,97890.78
2022-08-19T13:41:48.984Z,97892.69
2022-08-19T13:44:19.186Z,97885.75
2022-08-19T13:46:48.091Z,97892.53
2022-08-19T13:49:16.232Z,97889.84
2022-08-19T13:51:44.759Z,97887.31
2022-08-19T13:54:13.192Z,97885.47
2022-08-19T13:56:45.610Z,97891.47
2022-08-19T13:59:13.057Z,97884.56
2022-08-19T14:01:41.997Z,97886.00
2022-08-19T14:04:09.977Z,97879.84
2022-08-19T14:06:37.019Z,97876.53
2022-08-19T14:09:05.614Z,97875.47
2022-08-19T14:11:32.659Z,97883.28
2022-08-19T14:13:59.918Z,97877.78
2022-08-19T14:16:28.231Z,97875.63
2022-08-19T14:18:55.857Z,97872.91
2022-08-19T14:21:26.008Z,97886.38
2022-08-19T14:23:53.872Z,97888.00
2022-08-19T14:26:23.036Z,97891.66
2022-08-19T14:28:50.441Z,97892.38
2022-08-19T14:31:20.048Z,97899.97
2022-08-19T14:33:51.364Z,97907.34
2022-08-19T14:36:21.290Z,97901.09
2022-08-19T14:38:49.643Z,97902.19
2022-08-19T14:41:23.165Z,97887.28
2022-08-19T14:43:53.303Z,97882.41
2022-08-19T14:46:28.116Z,97878.38
2022-08-19T14:48:57.583Z,97877.91
2022-08-19T14:51:27.722Z,97884.16
2022-08-19T14:53:55.179Z,97887.59
2022-08-19T14:56:30.083Z,97885.88
2022-08-19T14:59:01.281Z,97886.94
2022-08-19T15:01:29.813Z,97888.06
2022-08-19T15:03:56.939Z,97895.56
2022-08-19T15:06:25.775Z,97890.88
2022-08-19T15:08:54.339Z,97892.75
2022-08-19T15:11:24.753Z,97896.13
2022-08-19T15:13:52.039Z,97887.00
2022-08-19T15:16:20.180Z,97894.06
2022-08-19T15:18:51.651Z,97897.31
2022-08-19T15:21:26.912Z,97900.66
2022-08-19T15:23:57.634Z,97907.81
2022-08-19T15:26:28.497Z,97915.94
2022-08-19T15:28:55.690Z,97913.75
2022-08-19T15:31:27.893Z,97918.91
2022-08-19T15:33:58.433Z,97931.84
2022-08-19T15:36:27.193Z,97932.59
2022-08-19T15:38:56.056Z,97927.78
2022-08-19T15:41:29.390Z,97924.53
2022-08-19T15:44:04.529Z,97936.31
2022-08-19T15:46:33.915Z,97931.19
2022-08-19T15:49:02.054Z,97922.50
2022-08-19T15:51:32.499Z,97927.44
2022-08-19T15:54:00.338Z,97920.13
2022-08-19T15:56:57.598Z,97926.47
2022-08-19T15:59:47.381Z,97927.94
2022-08-19T16:02:35.158Z,97930.34
2022-08-19T16:05:26.121Z,97925.91
2022-08-19T16:07:53.165Z,97916.06
2022-08-19T16:10:26.935Z,97927.63
2022-08-19T16:12:57.291Z,97922.91
2022-08-19T16:15:27.979Z,97929.94
2022-08-19T16:17:57.338Z,97930.41
2022-08-19T16:20:27.271Z,97922.75
2022-08-19T16:22:58.219Z,97925.81
2022-08-19T16:25:28.543Z,97929.25
2022-08-19T16:28:07.184Z,97933.00
2022-08-19T16:30:38.354Z,97921.09
2022-08-19T16:33:05.910Z,97921.66
2022-08-19T16:35:32.959Z,97914.59
2022-08-19T16:37:59.981Z,97928.34
2022-08-19T16:40:27.902Z,97917.63
2022-08-19T16:42:54.956Z,97924.06
2022-08-19T16:45:22.234Z,97926.94
2022-08-19T16:47:49.550Z,97927.91
2022-08-19T16:50:22.347Z,97921.94
2022-08-19T16:53:00.701Z,97926.97
2022-08-19T16:55:28.432Z,97916.78
2022-08-19T16:57:55.658Z,97926.22
2022-08-19T17:00:23.193Z,97929.81
2022-08-19T17:02:50.213Z,97931.56
2022-08-19T17:05:17.371Z,97937.56
2022-08-19T17:07:44.690Z,97936.13
2022-08-19T17:10:11.851Z,97937.88
2022-08-19T17:12:38.931Z,97932.19
2022-08-19T17:15:08.426Z,97934.97
2022-08-19T17:17:37.365Z,97935.84
2022-08-19T17:20:06.374Z,97931.94
2022-08-19T17:22:35.752Z,97945.56
2022-08-19T17:25:03.797Z,97944.34
2022-08-19T17:27:32.077Z,97947.78
2022-08-19T17:30:02.517Z,97941.16
2022-08-19T17:32:31.058Z,97951.88
2022-08-19T17:34:58.229Z,97950.69
2022-08-19T17:37:25.236Z,97947.22
2022-08-19T17:39:52.381Z,97947.63
2022-08-19T17:42:20.239Z,97955.09
2022-08-19T17:44:50.892Z,97947.06
2022-08-19T17:47:19.590Z,97960.88
2022-08-19T17:49:47.010Z,97948.91
2022-08-19T17:52:14.047Z,97956.25
2022-08-19T17:54:41.055Z,97960.31
2022-08-19T17:57:08.487Z,97956.28
2022-08-19T17:59:37.503Z,97960.22
2022-08-19T18:02:08.063Z,97952.69
2022-08-19T18:04:38.421Z,97958.84
2022-08-19T18:07:06.339Z,97961.00
2022-08-19T18:09:42.240Z,97955.94
2022-08-19T18:12:15.656Z,97962.47
2022-08-19T18:14:43.129Z,97968.97
2022-08-19T18:17:14.345Z,97968.88
2022-08-19T18:19:43.971Z,97973.41
2022-08-19T18:22:36.600Z,97976.31
2022-08-19T18:25:26.464Z,97979.31
2022-08-19T18:27:59.935Z,97973.88
2022-08-19T18:30:34.153Z,97974.13
2022-08-19T18:33:13.807Z,97971.59
2022-08-19T18:35:48.644Z,97977.03
2022-08-19T18:38:37.478Z,97981.50
2022-08-19T18:41:24.514Z,97983.63
2022-08-19T18:44:10.546Z,97981.94
2022-08-19T18:46:57.489Z,97984.56
2022-08-19T18:49:31.816Z,97982.28
2022-08-19T18:52:01.529Z,97986.88
2022-08-19T18:54:28.951Z,97980.84
2022-08-19T18:56:55.971Z,97983.31
2022-08-19T18:59:26.255Z,97986.28
2022-08-19T19:01:57.001Z,97984.78
2022-08-19T19:04:29.059Z,97989.19
2022-08-19T19:06:56.412Z,97995.94
2022-08-19T19:09:25.448Z,97999.59
2022-08-19T19:11:58.093Z,98007.22
2022-08-19T19:14:49.003Z,98006.16
2022-08-19T19:17:17.679Z,98010.38
2022-08-19T19:19:45.765Z,98006.81
2022-08-19T19:22:18.779Z,98004.69
2022-08-19T19:24:46.091Z,98016.47
2022-08-19T19:27:16.283Z,98017.25
2022-08-19T19:29:43.301Z,98022.91
2022-08-19T19:32:18.824Z,98024.16
2022-08-19T19:34:45.932Z,98018.28
2022-08-19T19:37:13.074Z,98022.03
2022-08-19T19:39:46.060Z,98020.25
2022-08-19T19:42:21.005Z,98030.16
2022-08-19T19:44:51.369Z,98033.56
2022-08-19T19:47:19.362Z,98030.91
2022-08-19T19:52:39.302Z,98027.88
2022-08-19T19:55:09.257Z,98038.53
2022-08-19T19:57:37.399Z,98040.66
2022-08-19T20:00:07.214Z,98040.00
2022-08-19T20:02:34.331Z,98041.63
2022-08-19T20:05:01.452Z,98040.38
2022-08-19T20:07:47.399Z,98045.19
2022-08-19T20:10:14.468Z,98043.56
2022-08-19T20:12:41.543Z,98049.75
2022-08-19T20:15:08.882Z,98043.59
2022-08-19T20:17:42.381Z,98043.69
2022-08-19T20:20:17.847Z,98040.50
2022-08-19T20:22:47.606Z,98040.53
2022-08-19T20:25:18.211Z,98042.16
2022-08-19T20:27:50.570Z,98050.44
2022-08-19T20:30:21.207Z,98047.16
2022-08-19T20:32:50.590Z,98057.41
2022-08-19T20:35:21.032Z,98066.41
2022-08-19T20:37:48.828Z,98061.78
2022-08-19T20:40:16.666Z,98053.69
2022-08-19T20:42:50.682Z,98051.94
2022-08-19T20:45:32.207Z,98058.78
2022-08-19T20:48:02.864Z,98057.34
2022-08-19T20:50:32.377Z,98051.00
2022-08-19T20:52:59.390Z,98057.38
2022-08-19T20:55:27.341Z,98049.50
2022-08-19T20:57:55.097Z,98052.53
2022-08-19T21:00:22.562Z,98053.69
2022-08-19T21:02:49.597Z,98052.72
2022-08-19T21:05:16.773Z,98049.00
2022-08-19T21:07:44.385Z,98048.75
2022-08-19T21:10:11.554Z,98052.34
2022-08-19T21:12:39.330Z,98049.84
2022-08-19T21:15:07.280Z,98052.16
2022-08-19T21:17:34.415Z,98063.06
2022-08-19T21:20:01.594Z,98067.41
2022-08-19T21:22:28.593Z,98059.09
2022-08-19T21:24:55.567Z,98060.13
2022-08-19T21:27:22.579Z,98059.75
2022-08-19T21:29:49.610Z,98064.28
2022-08-19T21:32:16.773Z,98059.84
2022-08-19T21:34:46.235Z,98061.59
2022-08-19T21:37:25.668Z,98060.59
2022-08-19T21:39:54.481Z,98059.47
2022-08-19T21:42:25.144Z,98064.88
2022-08-19T21:44:52.199Z,98066.00
2022-08-19T21:47:19.239Z,98062.38
2022-08-19T21:49:46.315Z,98058.19
2022-08-19T21:52:13.626Z,98063.47
2022-08-19T21:54:40.878Z,98064.75
2022-08-19T21:57:10.414Z,98063.09
2022-08-19T21:59:41.148Z,98070.00
2022-08-19T22:02:20.461Z,98079.13
2022-08-19T22:04:52.531Z,98074.03
2022-08-19T22:07:20.708Z,98072.41
2022-08-19T22:09:49.872Z,98074.81
2022-08-19T22:12:28.004Z,98071.94
2022-08-19T22:14:56.834Z,98062.72
2022-08-19T22:17:24.492Z,98061.19
2022-08-19T22:19:52.793Z,98060.91
2022-08-19T22:22:33.528Z,98055.09
2022-08-19T22:25:11.367Z,98064.84
2022-08-19T22:27:39.198Z,98066.66
2022-08-19T22:30:18.831Z,98066.97
2022-08-19T22:32:56.102Z,98070.91
2022-08-19T22:35:25.440Z,98065.78
2022-08-19T22:37:52.535Z,98073.22
2022-08-19T22:40:20.281Z,98072.50
2022-08-19T22:42:48.609Z,98072.09
2022-08-19T22:45:18.277Z,98073.22
2022-08-19T22:47:45.472Z,98076.88
2022-08-19T22:50:14.026Z,98079.59
2022-08-19T22:52:52.112Z,98080.66
2022-08-19T22:55:19.509Z,98078.31
2022-08-19T22:57:46.579Z,98078.94
2022-08-19T23:00:14.743Z,98076.59
2022-08-19T23:02:51.649Z,98079.19
2022-08-19T23:05:22.609Z,98073.09
2022-08-19T23:07:52.484Z,98080.16
2022-08-19T23:10:23.231Z,98074.47
2022-08-19T23:12:54.112Z,98093.25
2022-08-19T23:15:25.568Z,98084.41
2022-08-19T23:17:54.631Z,98085.63
2022-08-19T23:20:27.269Z,98090.56
2022-08-19T23:22:56.061Z,98084.34
2022-08-19T23:25:30.141Z,98085.19
2022-08-19T23:28:16.209Z,98075.13
2022-08-19T23:30:47.355Z,98083.84
2022-08-19T23:33:46.841Z,98083.97
2022-08-19T23:36:17.647Z,98090.84
2022-08-19T23:38:48.029Z,98084.28
2022-08-19T23:41:17.241Z,98097.66
2022-08-19T23:43:45.207Z,98095.09
2022-08-19T23:46:27.700Z,98082.78
2022-08-19T23:48:56.450Z,98086.47
2022-08-19T23:51:23.909Z,98088.72
2022-08-19T23:53:50.918Z,98087.59
2022-08-19T23:56:18.267Z,98088.41
2022-08-19T23:58:47.113Z,98087.28
